createdAt,value
2022-11-26T00:00:30.748Z,12.80
2022-11-26T00:02:58.629Z,6.67
2022-11-26T00:05:31.170Z,7.83
2022-11-26T00:08:01.889Z,9.27
2022-11-26T00:10:35.921Z,6.23
2022-11-26T00:13:03.744Z,6.50
2022-11-26T00:15:32.768Z,5.40
2022-11-26T00:18:00.665Z,7.60
2022-11-26T00:20:31.920Z,6.97
2022-11-26T00:23:03.167Z,7.17
2022-11-26T00:25:39.574Z,6.70
2022-11-26T00:28:24.133Z,6.40
2022-11-26T00:30:51.908Z,7.90
2022-11-26T00:33:19.821Z,9.60
2022-11-26T00:35:57.406Z,6.07
2022-11-26T00:38:26.016Z,6.73
2022-11-26T00:40:55.096Z,7.87
2022-11-26T00:43:22.999Z,8.23
2022-11-26T00:45:50.889Z,8.50
2022-11-26T00:48:19.149Z,4.73
2022-11-26T00:50:50.849Z,5.20
2022-11-26T00:53:22.099Z,6.00
2022-11-26T00:55:51.474Z,7.60
2022-11-26T00:58:28.535Z,5.90
2022-11-26T01:01:01.051Z,5.80
2022-11-26T01:03:29.749Z,5.20
2022-11-26T01:05:59.905Z,8.57
2022-11-26T01:08:31.084Z,8.17
2022-11-26T01:10:59.059Z,7.10
2022-11-26T01:13:28.434Z,14.40
2022-11-26T01:15:57.650Z,8.70
2022-11-26T01:18:26.425Z,6.77
2022-11-26T01:20:54.162Z,7.40
2022-11-26T01:23:22.621Z,6.27
2022-11-26T01:25:50.669Z,10.60
2022-11-26T01:28:19.791Z,8.50
2022-11-26T01:30:48.985Z,7.13
2022-11-26T01:33:16.768Z,4.43
2022-11-26T01:35:44.660Z,9.27
2022-11-26T01:38:15.039Z,7.60
2022-11-26T01:41:02.535Z,6.40
2022-11-26T01:43:34.447Z,6.90
2022-11-26T01:46:03.757Z,5.80
2022-11-26T01:48:33.460Z,5.93
2022-11-26T01:51:03.619Z,6.80
2022-11-26T01:53:40.702Z,5.37
2022-11-26T01:56:17.065Z,6.30
2022-11-26T01:58:48.111Z,8.77
2022-11-26T02:01:17.596Z,10.07
2022-11-26T02:03:53.997Z,6.37
2022-11-26T02:06:26.598Z,7.83
2022-11-26T02:08:55.416Z,5.07
2022-11-26T02:11:24.771Z,5.53
2022-11-26T02:13:56.122Z,9.63
2022-11-26T02:16:58.974Z,8.80
2022-11-26T02:19:56.800Z,6.57
2022-11-26T02:22:43.738Z,8.20
2022-11-26T02:25:20.612Z,10.00
2022-11-26T02:28:16.089Z,9.00
2022-11-26T02:30:49.072Z,3.90
2022-11-26T02:33:21.265Z,9.23
2022-11-26T02:35:52.573Z,6.87
2022-11-26T02:38:23.772Z,8.77
2022-11-26T02:40:51.886Z,6.70
2022-11-26T02:43:21.208Z,8.10
2022-11-26T02:45:55.644Z,5.80
2022-11-26T02:48:27.411Z,9.27
2022-11-26T02:50:58.402Z,7.17
2022-11-26T02:53:29.482Z,8.10
2022-11-26T02:56:03.275Z,9.93
2022-11-26T02:58:32.304Z,4.10
2022-11-26T03:01:05.672Z,8.13
2022-11-26T03:03:38.798Z,8.20
2022-11-26T03:06:11.890Z,4.90
2022-11-26T03:08:40.196Z,4.57
2022-11-26T03:11:08.147Z,8.13
2022-11-26T03:13:35.976Z,4.40
2022-11-26T03:16:05.724Z,11.63
2022-11-26T03:18:33.516Z,7.13
2022-11-26T03:21:01.595Z,6.80
2022-11-26T03:23:29.337Z,7.10
2022-11-26T03:25:57.103Z,6.60
2022-11-26T03:28:24.890Z,8.63
2022-11-26T03:30:53.687Z,5.77
2022-11-26T03:33:22.887Z,8.40
2022-11-26T03:35:51.264Z,6.47
2022-11-26T03:38:19.175Z,9.70
2022-11-26T03:40:46.964Z,9.97
2022-11-26T03:43:14.814Z,8.03
2022-11-26T03:45:42.898Z,6.20
2022-11-26T03:48:10.824Z,8.90
2022-11-26T03:50:40.003Z,4.63
2022-11-26T03:53:07.813Z,11.00
2022-11-26T03:55:35.799Z,8.30
2022-11-26T03:58:03.602Z,7.57
2022-11-26T04:00:31.436Z,7.30
2022-11-26T04:02:59.288Z,8.93
2022-11-26T04:05:27.119Z,9.33
2022-11-26T04:07:56.348Z,10.80
2022-11-26T04:10:24.303Z,9.60
2022-11-26T04:12:52.135Z,9.80
2022-11-26T04:15:19.940Z,7.50
2022-11-26T04:17:47.739Z,9.07
2022-11-26T04:20:15.754Z,14.33
2022-11-26T04:22:43.526Z,12.80
2022-11-26T04:25:12.667Z,9.97
2022-11-26T04:27:40.587Z,8.03
2022-11-26T04:30:09.711Z,7.10
2022-11-26T04:32:39.788Z,7.27
2022-11-26T04:35:08.903Z,8.60
2022-11-26T04:37:36.835Z,8.70
2022-11-26T04:40:05.385Z,7.83
2022-11-26T04:42:34.522Z,13.70
2022-11-26T04:45:02.373Z,12.23
2022-11-26T04:47:30.210Z,8.97
2022-11-26T04:49:58.088Z,10.30
2022-11-26T04:52:26.061Z,11.57
2022-11-26T04:54:53.891Z,7.73
2022-11-26T04:57:21.758Z,9.20
2022-11-26T04:59:50.915Z,6.00
2022-11-26T05:02:18.694Z,13.73
2022-11-26T05:04:46.638Z,8.00
2022-11-26T05:07:14.851Z,8.47
2022-11-26T05:09:42.744Z,9.70
2022-11-26T05:12:11.178Z,6.83
2022-11-26T05:14:39.117Z,8.93
2022-11-26T05:17:08.494Z,7.77
2022-11-26T05:19:36.326Z,9.07
2022-11-26T05:22:04.091Z,9.83
2022-11-26T05:24:31.852Z,9.03
2022-11-26T05:26:59.792Z,6.87
2022-11-26T05:29:27.748Z,11.70
2022-11-26T05:31:55.890Z,7.53
2022-11-26T05:34:25.143Z,11.73
2022-11-26T05:36:52.953Z,17.30
2022-11-26T05:39:20.727Z,9.00
2022-11-26T05:41:48.604Z,7.33
2022-11-26T05:44:16.442Z,6.43
2022-11-26T05:46:44.306Z,7.37
2022-11-26T05:49:12.051Z,9.17
2022-11-26T05:51:41.315Z,8.17
2022-11-26T05:54:12.568Z,9.10
2022-11-26T05:56:40.856Z,7.90
2022-11-26T05:59:08.751Z,9.73
2022-11-26T06:01:36.534Z,8.50
2022-11-26T06:04:04.600Z,10.67
2022-11-26T06:06:32.587Z,13.67
2022-11-26T06:09:01.705Z,8.37
2022-11-26T06:11:29.524Z,10.53
2022-11-26T06:13:57.423Z,9.07
2022-11-26T06:16:25.224Z,8.63
2022-11-26T06:18:53.083Z,8.57
2022-11-26T06:21:20.863Z,9.03
2022-11-26T06:23:55.848Z,7.37
2022-11-26T06:26:28.559Z,7.53
2022-11-26T06:28:56.388Z,7.00
2022-11-26T06:31:24.298Z,12.40
2022-11-26T06:33:54.445Z,9.33
2022-11-26T06:36:22.725Z,7.70
2022-11-26T06:38:50.618Z,12.20
2022-11-26T06:41:18.444Z,9.30
2022-11-26T06:43:47.609Z,8.97
2022-11-26T06:46:15.572Z,7.90
2022-11-26T06:48:43.488Z,7.30
2022-11-26T06:51:13.944Z,6.50
2022-11-26T06:53:42.295Z,7.00
2022-11-26T06:56:18.138Z,6.83
2022-11-26T06:58:48.911Z,7.47
2022-11-26T07:01:19.207Z,9.00
2022-11-26T07:03:47.173Z,7.17
2022-11-26T07:06:19.635Z,7.47
2022-11-26T07:08:47.670Z,9.27
2022-11-26T07:11:15.929Z,4.90
2022-11-26T07:13:43.810Z,11.07
2022-11-26T07:16:13.556Z,5.60
2022-11-26T07:18:41.709Z,9.30
2022-11-26T07:21:11.709Z,8.30
2022-11-26T07:23:41.377Z,9.37
2022-11-26T07:26:10.600Z,8.20
2022-11-26T07:28:39.247Z,5.13
2022-11-26T07:31:14.547Z,9.27
2022-11-26T07:33:53.591Z,7.93
2022-11-26T07:36:24.137Z,6.50
2022-11-26T07:38:54.397Z,6.53
2022-11-26T07:41:22.250Z,3.90
2022-11-26T07:43:50.281Z,5.63
2022-11-26T07:46:20.340Z,8.60
2022-11-26T07:48:49.970Z,13.87
2022-11-26T07:51:20.542Z,5.07
2022-11-26T07:53:48.658Z,8.00
2022-11-26T07:56:17.377Z,4.47
2022-11-26T07:58:45.454Z,3.63
2022-11-26T08:01:15.766Z,2.90
2022-11-26T08:03:45.980Z,3.63
2022-11-26T08:06:17.380Z,6.20
2022-11-26T08:08:45.348Z,5.67
2022-11-26T08:11:15.585Z,5.53
2022-11-26T08:13:43.913Z,6.30
2022-11-26T08:16:12.468Z,3.93
2022-11-26T08:18:41.068Z,4.27
2022-11-26T08:21:08.864Z,3.20
2022-11-26T08:23:38.586Z,4.37
2022-11-26T08:26:29.142Z,5.40
2022-11-26T08:28:55.491Z,6.60
2022-11-26T08:31:24.718Z,6.17
2022-11-26T08:33:52.716Z,9.10
2022-11-26T08:36:20.492Z,4.80
2022-11-26T08:38:49.617Z,4.20
2022-11-26T08:41:17.440Z,5.50
2022-11-26T08:44:05.814Z,8.80
2022-11-26T08:46:33.286Z,6.90
2022-11-26T08:49:01.040Z,4.90
2022-11-26T08:51:29.025Z,5.27
2022-11-26T08:53:58.228Z,8.33
2022-11-26T08:56:26.604Z,3.40
2022-11-26T08:58:54.409Z,8.30
2022-11-26T09:01:24.436Z,6.20
2022-11-26T09:03:53.767Z,6.20
2022-11-26T09:06:22.797Z,5.80
2022-11-26T09:09:08.184Z,5.50
2022-11-26T09:11:40.027Z,6.03
2022-11-26T09:14:07.974Z,6.90
2022-11-26T09:16:36.073Z,12.20
2022-11-26T09:19:06.120Z,5.53
2022-11-26T09:21:34.060Z,6.00
2022-11-26T09:24:02.276Z,7.50
2022-11-26T09:26:31.663Z,8.93
2022-11-26T09:29:01.168Z,9.03
2022-11-26T09:31:29.540Z,4.73
2022-11-26T09:33:58.379Z,4.73
2022-11-26T09:36:26.299Z,8.00
2022-11-26T09:38:55.042Z,6.33
2022-11-26T09:41:43.145Z,6.00
2022-11-26T09:44:24.075Z,6.83
2022-11-26T09:47:12.100Z,11.80
2022-11-26T09:49:55.167Z,9.80
2022-11-26T09:52:26.795Z,7.83
2022-11-26T09:55:03.387Z,5.53
2022-11-26T09:57:40.666Z,10.60
2022-11-26T10:00:22.379Z,6.33
2022-11-26T10:02:53.304Z,7.83
2022-11-26T10:05:22.444Z,7.63
2022-11-26T10:08:01.066Z,4.97
2022-11-26T10:10:37.009Z,4.90
2022-11-26T10:13:21.283Z,6.00
2022-11-26T10:16:03.214Z,5.20
2022-11-26T10:18:39.496Z,7.17
2022-11-26T10:21:18.279Z,5.17
2022-11-26T10:24:01.513Z,8.77
2022-11-26T10:26:33.646Z,6.30
2022-11-26T10:29:16.770Z,7.53
2022-11-26T10:31:47.785Z,8.73
2022-11-26T10:34:20.243Z,9.00
2022-11-26T10:36:49.161Z,7.87
2022-11-26T10:39:20.335Z,10.53
2022-11-26T10:41:49.136Z,10.93
2022-11-26T10:44:30.917Z,7.43
2022-11-26T10:47:01.234Z,11.27
2022-11-26T10:49:31.196Z,9.80
2022-11-26T10:52:01.834Z,11.60
2022-11-26T10:54:34.498Z,8.10
2022-11-26T10:57:12.519Z,8.97
2022-11-26T10:59:45.932Z,10.80
2022-11-26T11:02:29.758Z,11.93
2022-11-26T11:05:00.103Z,10.43
2022-11-26T11:07:39.984Z,6.70
2022-11-26T11:10:16.969Z,9.40
2022-11-26T11:12:49.747Z,18.20
2022-11-26T11:15:23.960Z,8.73
2022-11-26T11:17:59.830Z,15.93
2022-11-26T11:20:33.808Z,9.03
2022-11-26T11:23:08.701Z,9.17
2022-11-26T11:25:38.157Z,11.50
2022-11-26T11:28:12.416Z,6.90
2022-11-26T11:30:42.836Z,10.47
2022-11-26T11:33:19.853Z,11.60
2022-11-26T11:35:59.300Z,15.07
2022-11-26T11:38:29.091Z,8.30
2022-11-26T11:40:57.130Z,9.03
2022-11-26T11:43:26.778Z,12.10
2022-11-26T11:46:05.611Z,9.17
2022-11-26T11:48:46.841Z,11.87
2022-11-26T11:51:23.076Z,12.63
2022-11-26T11:54:03.135Z,9.80
2022-11-26T11:56:37.651Z,14.67
2022-11-26T11:59:21.490Z,17.37
2022-11-26T12:02:09.576Z,8.77
2022-11-26T12:05:01.959Z,6.83
2022-11-26T12:07:39.351Z,13.63
2022-11-26T12:10:14.849Z,9.47
2022-11-26T12:12:45.519Z,12.40
2022-11-26T12:15:24.430Z,11.10
2022-11-26T12:17:57.455Z,14.03
2022-11-26T12:20:32.501Z,9.37
2022-11-26T12:23:16.023Z,11.53
2022-11-26T12:25:50.083Z,7.50
2022-11-26T12:28:22.539Z,8.83
2022-11-26T12:30:56.773Z,11.20
2022-11-26T12:33:28.280Z,11.73
2022-11-26T12:36:01.521Z,11.93
2022-11-26T12:38:33.273Z,10.57
2022-11-26T12:41:06.413Z,13.50
2022-11-26T12:43:45.927Z,15.90
2022-11-26T12:46:19.975Z,9.30
2022-11-26T12:48:55.205Z,16.00
2022-11-26T12:51:32.315Z,14.13
2022-11-26T12:54:07.995Z,8.77
2022-11-26T12:56:41.492Z,12.30
2022-11-26T12:59:16.525Z,9.00
2022-11-26T13:01:44.364Z,9.20
2022-11-26T13:04:36.837Z,13.00
2022-11-26T13:07:17.007Z,14.10
2022-11-26T13:09:56.494Z,10.57
2022-11-26T13:12:37.683Z,11.37
2022-11-26T13:15:14.367Z,9.67
2022-11-26T13:17:43.956Z,22.87
2022-11-26T13:20:40.105Z,17.17
2022-11-26T13:23:22.374Z,11.20
2022-11-26T13:26:07.496Z,14.13
2022-11-26T13:28:53.264Z,10.07
2022-11-26T13:31:36.281Z,10.80
2022-11-26T13:34:25.745Z,6.20
2022-11-26T13:37:13.451Z,12.53
2022-11-26T13:40:20.215Z,10.97
2022-11-26T13:43:04.872Z,10.23
2022-11-26T13:46:08.218Z,8.73
2022-11-26T13:48:43.243Z,8.03
2022-11-26T13:51:19.898Z,16.93
2022-11-26T13:53:51.563Z,10.43
2022-11-26T13:56:24.862Z,11.83
2022-11-26T13:58:56.943Z,8.10
2022-11-26T14:01:30.555Z,5.63
2022-11-26T14:03:58.850Z,12.10
2022-11-26T14:06:27.939Z,6.70
2022-11-26T14:08:56.589Z,10.67
2022-11-26T14:11:57.908Z,10.10
2022-11-26T14:14:36.820Z,14.13
2022-11-26T14:17:24.679Z,12.10
2022-11-26T14:20:07.482Z,11.60
2022-11-26T14:22:36.699Z,8.70
2022-11-26T14:25:07.061Z,9.50
2022-11-26T14:27:40.057Z,8.03
2022-11-26T14:30:26.733Z,6.00
2022-11-26T14:33:15.320Z,8.07
2022-11-26T14:35:55.270Z,10.53
2022-11-26T14:38:26.250Z,9.40
2022-11-26T14:40:59.832Z,11.20
2022-11-26T14:43:29.398Z,9.67
2022-11-26T14:46:10.218Z,8.27
2022-11-26T14:48:43.579Z,10.10
2022-11-26T14:51:11.558Z,7.60
2022-11-26T14:53:47.510Z,15.60
2022-11-26T14:56:15.434Z,8.17
2022-11-26T14:58:47.834Z,10.83
2022-11-26T15:01:21.194Z,7.57
2022-11-26T15:04:01.191Z,9.37
2022-11-26T15:06:34.698Z,7.30
2022-11-26T15:09:14.400Z,7.97
2022-11-26T15:11:46.659Z,9.17
2022-11-26T15:14:26.835Z,5.97
2022-11-26T15:16:57.957Z,6.60
2022-11-26T15:19:26.803Z,9.73
2022-11-26T15:21:55.129Z,6.50
2022-11-26T15:24:23.058Z,7.33
2022-11-26T15:26:50.886Z,7.47
2022-11-26T15:29:37.185Z,8.93
2022-11-26T15:32:05.579Z,10.50
2022-11-26T15:34:33.907Z,8.67
2022-11-26T15:37:01.833Z,7.10
2022-11-26T15:39:31.240Z,10.13
2022-11-26T15:42:03.732Z,16.23
2022-11-26T15:44:41.950Z,14.80
2022-11-26T15:47:20.915Z,7.10
2022-11-26T15:49:54.082Z,11.50
2022-11-26T15:52:24.280Z,15.57
2022-11-26T15:55:15.982Z,14.90
2022-11-26T15:57:44.723Z,20.93
2022-11-26T16:00:22.554Z,23.30
2022-11-26T16:02:52.015Z,19.10
2022-11-26T16:05:25.242Z,24.03
2022-11-26T16:08:01.293Z,17.33
2022-11-26T16:10:35.202Z,18.83
2022-11-26T16:13:19.922Z,17.00
2022-11-26T16:15:52.427Z,16.13
2022-11-26T16:18:22.662Z,16.47
2022-11-26T16:20:50.724Z,17.80
2022-11-26T16:23:25.051Z,18.90
2022-11-26T16:26:11.347Z,23.43
2022-11-26T16:28:42.731Z,22.13
2022-11-26T16:31:12.007Z,33.40
2022-11-26T16:33:40.510Z,38.10
2022-11-26T16:36:19.672Z,65.40
2022-11-26T16:38:48.456Z,90.13
2022-11-26T16:41:18.950Z,126.20
2022-11-26T16:43:47.825Z,142.20
2022-11-26T16:46:18.193Z,150.17
2022-11-26T16:48:47.132Z,57.83
2022-11-26T16:51:15.652Z,38.97
2022-11-26T16:53:44.054Z,26.30
2022-11-26T16:56:26.576Z,40.60
2022-11-26T16:58:55.011Z,41.50
2022-11-26T17:01:24.191Z,46.67
2022-11-26T17:03:52.117Z,44.20
2022-11-26T17:06:26.513Z,44.20
2022-11-26T17:08:56.478Z,36.87
2022-11-26T17:11:24.935Z,36.20
2022-11-26T17:13:52.857Z,38.43
2022-11-26T17:16:22.203Z,32.13
2022-11-26T17:18:51.878Z,35.37
2022-11-26T17:21:19.654Z,30.97
2022-11-26T17:23:47.477Z,26.53
2022-11-26T17:26:20.505Z,26.17
2022-11-26T17:28:49.015Z,30.80
2022-11-26T17:31:17.083Z,27.97
2022-11-26T17:33:45.147Z,26.17
2022-11-26T17:36:19.939Z,28.17
2022-11-26T17:38:48.553Z,25.73
2022-11-26T17:41:16.768Z,23.73
2022-11-26T17:43:46.483Z,30.43
2022-11-26T17:46:17.204Z,21.80
2022-11-26T17:48:45.997Z,21.43
2022-11-26T17:51:15.209Z,24.40
2022-11-26T17:53:44.940Z,22.57
2022-11-26T17:56:18.301Z,23.80
2022-11-26T17:58:46.920Z,24.17
2022-11-26T18:01:15.546Z,26.53
2022-11-26T18:03:44.363Z,20.40
2022-11-26T18:06:16.626Z,24.20
2022-11-26T18:08:46.434Z,23.57
2022-11-26T18:11:16.899Z,21.60
2022-11-26T18:13:45.414Z,21.37
2022-11-26T18:16:13.408Z,23.83
2022-11-26T18:18:41.290Z,24.00
2022-11-26T18:21:09.090Z,16.73
2022-11-26T18:23:36.891Z,18.93
2022-11-26T18:26:07.587Z,19.53
2022-11-26T18:28:35.439Z,19.23
2022-11-26T18:31:03.285Z,23.77
2022-11-26T18:33:31.114Z,20.37
2022-11-26T18:35:58.920Z,16.53
2022-11-26T18:38:29.191Z,15.10
2022-11-26T18:41:02.079Z,13.17
2022-11-26T18:43:31.946Z,14.70
2022-11-26T18:46:04.037Z,14.63
2022-11-26T18:48:34.760Z,15.63
2022-11-26T18:51:03.130Z,18.07
2022-11-26T18:53:31.217Z,15.07
2022-11-26T18:55:59.475Z,18.17
2022-11-26T18:58:27.732Z,19.03
2022-11-26T19:00:58.737Z,12.90
2022-11-26T19:03:27.923Z,20.20
2022-11-26T19:05:56.274Z,17.10
2022-11-26T19:08:24.558Z,19.70
2022-11-26T19:10:52.360Z,17.33
2022-11-26T19:13:20.211Z,15.70
2022-11-26T19:15:48.193Z,19.90
2022-11-26T19:18:17.961Z,18.00
2022-11-26T19:20:49.903Z,18.77
2022-11-26T19:23:23.907Z,16.80
2022-11-26T19:25:51.711Z,21.67
2022-11-26T19:28:19.471Z,20.63
2022-11-26T19:31:00.692Z,25.83
2022-11-26T19:33:33.177Z,18.77
2022-11-26T19:36:05.318Z,23.47
2022-11-26T19:38:33.781Z,22.23
2022-11-26T19:41:02.274Z,20.03
2022-11-26T19:43:33.768Z,22.53
2022-11-26T19:46:06.533Z,25.17
2022-11-26T19:48:37.553Z,28.90
2022-11-26T19:51:05.937Z,23.23
2022-11-26T19:53:34.137Z,26.40
2022-11-26T19:56:04.457Z,28.93
2022-11-26T19:58:33.814Z,35.33
2022-11-26T20:01:02.219Z,32.47
2022-11-26T20:03:35.780Z,34.83
2022-11-26T20:06:09.700Z,31.13
2022-11-26T20:08:38.418Z,18.97
2022-11-26T20:11:08.225Z,19.83
2022-11-26T20:13:36.767Z,14.70
2022-11-26T20:16:06.805Z,16.53
2022-11-26T20:18:34.801Z,22.17
2022-11-26T20:21:04.560Z,21.47
2022-11-26T20:23:33.816Z,20.10
2022-11-26T20:26:01.965Z,34.17
2022-11-26T20:28:29.764Z,60.60
2022-11-26T20:30:57.608Z,72.77
2022-11-26T20:33:25.516Z,82.33
2022-11-26T20:35:53.314Z,84.07
2022-11-26T20:38:21.056Z,80.90
2022-11-26T20:40:50.225Z,64.53
2022-11-26T20:43:18.018Z,67.57
2022-11-26T20:45:46.754Z,63.33
2022-11-26T20:48:14.647Z,53.97
2022-11-26T20:50:42.468Z,55.30
2022-11-26T20:53:10.264Z,56.67
2022-11-26T20:55:38.140Z,59.97
2022-11-26T20:58:07.330Z,41.47
2022-11-26T21:00:35.397Z,43.10
2022-11-26T21:03:03.310Z,51.70
2022-11-26T21:05:31.191Z,41.43
2022-11-26T21:07:59.132Z,42.17
2022-11-26T21:10:28.772Z,43.17
2022-11-26T21:12:56.740Z,34.77
2022-11-26T21:15:26.016Z,37.77
2022-11-26T21:17:54.086Z,34.30
2022-11-26T21:20:22.014Z,33.93
2022-11-26T21:22:49.793Z,39.77
2022-11-26T21:25:17.722Z,32.83
2022-11-26T21:27:45.528Z,32.67
2022-11-26T21:30:14.375Z,38.73
2022-11-26T21:32:43.536Z,44.50
2022-11-26T21:35:11.397Z,50.20
2022-11-26T21:37:39.220Z,45.10
2022-11-26T21:40:08.338Z,48.93
2022-11-26T21:42:36.131Z,38.13
2022-11-26T21:45:04.239Z,35.13
2022-11-26T21:47:32.035Z,43.57
2022-11-26T21:50:01.269Z,44.30
2022-11-26T21:52:29.134Z,34.33
2022-11-26T21:55:00.857Z,34.57
2022-11-26T21:57:32.015Z,42.17
2022-11-26T21:59:59.892Z,39.40
2022-11-26T22:02:27.749Z,41.97
2022-11-26T22:04:56.733Z,40.93
2022-11-26T22:07:26.154Z,31.70
2022-11-26T22:09:54.261Z,38.90
2022-11-26T22:12:22.050Z,33.00
2022-11-26T22:14:49.840Z,34.73
2022-11-26T22:17:17.677Z,31.10
2022-11-26T22:19:45.592Z,27.37
2022-11-26T22:22:13.502Z,35.30
2022-11-26T22:24:42.741Z,33.20
2022-11-26T22:27:10.475Z,31.87
2022-11-26T22:29:38.523Z,29.20
2022-11-26T22:32:07.183Z,33.80
2022-11-26T22:34:35.026Z,27.90
2022-11-26T22:37:04.495Z,33.73
2022-11-26T22:39:32.638Z,29.93
2022-11-26T22:42:01.749Z,36.93
2022-11-26T22:44:29.651Z,30.60
2022-11-26T22:46:57.445Z,30.70
2022-11-26T22:49:25.456Z,29.53
2022-11-26T22:51:53.267Z,36.30
2022-11-26T22:54:21.319Z,36.20
2022-11-26T22:56:49.104Z,35.47
2022-11-26T23:01:56.587Z,41.27
2022-11-26T23:04:24.392Z,38.23
2022-11-26T23:06:52.215Z,39.53
2022-11-26T23:09:20.067Z,38.97
2022-11-26T23:11:47.997Z,37.83
2022-11-26T23:14:15.829Z,38.43
2022-11-26T23:16:44.250Z,40.77
2022-11-26T23:19:16.151Z,37.40
2022-11-26T23:21:46.569Z,29.07
2022-11-26T23:24:15.341Z,27.83
2022-11-26T23:26:44.000Z,27.63
2022-11-26T23:29:12.497Z,24.60
2022-11-26T23:31:43.422Z,28.83
2022-11-26T23:34:11.663Z,23.73
2022-11-26T23:36:41.620Z,24.00
2022-11-26T23:39:12.443Z,22.40
2022-11-26T23:41:40.265Z,24.40
2022-11-26T23:44:08.037Z,23.53
2022-11-26T23:46:36.256Z,20.97
2022-11-26T23:49:04.652Z,28.53
2022-11-26T23:51:33.905Z,20.50
2022-11-26T23:54:03.229Z,23.70
2022-11-26T23:56:32.726Z,28.40
2022-11-26T23:59:02.844Z,29.47
